Time;durP1;ratioP1;P1;durP2;ratioP2;P2;SDS_P1;SDS_P2;PMS_P1;PMS_P2;Temp;Humidity;BMP_temperature;BMP_pressure;BME280_temperature;BME280_humidity;BME280_pressure;Samples;Min_cycle;Max_cycle;Signal;HPM_P1;HPM_P2
2021/10/22 04:07:45;;;;;;;9.25;2.47;;;;;;;6.19;81.21;100009.50;1089785;46;20022;-82
2021/10/22 04:08:46;;;;;;;5.38;1.90;;;;;;;6.19;81.14;100009.50;1088205;39;20593;-82
2021/10/22 04:09:51;;;;;;;5.03;1.95;;;;;;;6.27;81.25;100013.41;1087942;54;20026;-84
2021/10/22 04:10:52;;;;;;;6.55;2.20;;;;;;;6.24;81.04;100010.03;1088052;54;20030;-84
2021/10/22 04:11:57;;;;;;;5.68;1.55;;;;;;;6.30;81.10;100005.19;1087971;54;20037;-82
2021/10/22 04:13:00;;;;;;;6.43;1.90;;;;;;;6.38;80.89;100011.59;1088046;54;20034;-82
2021/10/22 04:14:05;;;;;;;6.15;2.00;;;;;;;6.36;80.91;100013.53;1088025;54;20107;-82
2021/10/22 04:15:07;;;;;;;6.00;1.75;;;;;;;6.37;80.61;100015.22;1088069;54;20034;-83
2021/10/22 04:16:11;;;;;;;4.05;1.73;;;;;;;6.31;80.94;100015.72;1087952;54;20034;-83
2021/10/22 04:17:13;;;;;;;5.68;1.98;;;;;;;6.32;80.65;100009.44;1088082;54;20038;-83
2021/10/22 04:18:17;;;;;;;7.80;1.90;;;;;;;6.32;80.63;100017.41;1088171;54;20025;-84
2021/10/22 04:19:19;;;;;;;6.88;2.10;;;;;;;6.22;80.94;100011.94;1088104;54;20785;-82
2021/10/22 04:20:23;;;;;;;5.07;2.00;;;;;;;6.27;80.85;100008.94;1088128;54;21036;-80
2021/10/22 04:21:25;;;;;;;5.90;1.90;;;;;;;6.34;80.97;100014.63;1088112;54;20046;-81
2021/10/22 04:22:29;;;;;;;5.30;2.22;;;;;;;6.26;80.97;100009.88;1088090;54;20041;-82
2021/10/22 04:23:33;;;;;;;6.22;1.83;;;;;;;6.28;80.60;100015.94;1088091;54;20034;-84
2021/10/22 04:24:37;;;;;;;6.07;2.08;;;;;;;6.33;80.73;100019.06;1088155;54;20047;-82
2021/10/22 04:25:40;;;;;;;6.45;2.47;;;;;;;6.36;80.56;100020.66;1088101;54;20041;-82
2021/10/22 04:26:45;;;;;;;8.10;2.58;;;;;;;6.26;81.18;100017.84;1088030;54;20030;-84
2021/10/22 04:27:46;;;;;;;4.85;2.30;;;;;;;6.39;80.67;100018.63;1090858;39;20676;-82
2021/10/22 04:28:50;;;;;;;8.32;2.85;;;;;;;6.30;80.98;100021.13;1088032;54;20026;-82
2021/10/22 04:29:52;;;;;;;5.60;2.17;;;;;;;6.37;80.65;100017.06;1088075;54;20750;-83
2021/10/22 04:30:56;;;;;;;4.82;2.65;;;;;;;6.34;80.81;100022.59;1088080;54;20030;-83
2021/10/22 04:31:58;;;;;;;7.70;2.58;;;;;;;6.42;80.62;100022.00;1088086;54;20030;-82
2021/10/22 04:33:02;;;;;;;9.35;2.70;;;;;;;6.34;80.61;100026.06;1088101;54;20031;-82
2021/10/22 04:34:03;;;;;;;7.80;2.30;;;;;;;6.37;80.68;100030.31;1088024;54;20038;-82
2021/10/22 04:35:08;;;;;;;7.57;2.30;;;;;;;6.36;80.58;100028.63;1088081;54;20011;-83
2021/10/22 04:36:12;;;;;;;4.80;2.35;;;;;;;6.49;80.33;100025.88;1088005;47;20041;-82
2021/10/22 04:37:31;;;;;;;6.22;2.17;;;;;;;6.48;80.48;100019.69;1088316;39;20601;-81
2021/10/22 04:41:09;;;;;;;6.90;2.45;;;;;;;6.47;80.20;100035.75;1088089;54;20049;-83
2021/10/22 04:42:13;;;;;;;6.85;2.08;;;;;;;6.47;80.28;100025.97;1088118;54;20019;-83
2021/10/22 04:43:16;;;;;;;6.07;2.47;;;;;;;6.43;80.57;100034.28;1088134;54;20100;-82
2021/10/22 04:44:20;;;;;;;5.28;2.10;;;;;;;6.45;80.39;100033.22;1088080;54;20073;-83
2021/10/22 04:45:22;;;;;;;7.80;2.08;;;;;;;6.53;80.08;100032.63;1088012;54;20046;-84
2021/10/22 04:46:26;;;;;;;5.85;2.40;;;;;;;6.48;80.18;100040.09;1088388;46;20076;-83
2021/10/22 04:47:28;;;;;;;7.75;2.78;;;;;;;6.50;80.31;100030.22;1087927;54;20034;-83
2021/10/22 04:48:32;;;;;;;8.23;2.10;;;;;;;6.53;79.99;100029.97;1088114;54;20041;-83
2021/10/22 04:49:35;;;;;;;7.53;2.40;;;;;;;6.50;80.63;100030.22;1087974;54;20026;-83
2021/10/22 04:50:44;;;;;;;5.88;2.60;;;;;;;6.50;80.52;100030.22;1087976;54;20041;-83
2021/10/22 04:51:45;;;;;;;4.40;2.30;;;;;;;6.47;80.37;100025.13;1088055;54;20053;-82
2021/10/22 04:52:53;;;;;;;7.55;2.92;;;;;;;6.38;80.72;100024.88;1088011;54;20090;-83
2021/10/22 04:53:57;;;;;;;5.60;2.28;;;;;;;6.54;80.38;100026.34;1088033;54;20023;-86
2021/10/22 04:55:03;;;;;;;4.88;2.00;;;;;;;6.64;80.11;100026.50;1087989;54;20030;-83
2021/10/22 04:56:07;;;;;;;5.70;2.17;;;;;;;6.69;79.68;100025.16;1087750;54;20058;-83
2021/10/22 04:57:08;;;;;;;7.43;2.80;;;;;;;6.58;79.99;100025.16;1088048;54;20034;-83
2021/10/22 04:58:13;;;;;;;6.53;2.70;;;;;;;6.68;79.80;100023.47;1087983;54;20037;-82
2021/10/22 04:59:14;;;;;;;8.80;3.28;;;;;;;6.52;79.99;100023.81;1087895;54;20037;-84
2021/10/22 05:00:20;;;;;;;5.45;2.22;;;;;;;6.62;79.87;100028.41;1087963;54;20041;-85
2021/10/22 05:01:24;;;;;;;7.07;2.45;;;;;;;6.58;79.87;100024.28;1088001;54;20038;-81
2021/10/22 05:02:26;;;;;;;7.90;3.28;;;;;;;6.51;80.02;100023.94;1087913;54;20042;-85
2021/10/22 05:03:30;;;;;;;9.50;2.55;;;;;;;6.45;80.25;100022.59;1087923;54;20030;-83
2021/10/22 05:04:32;;;;;;;8.45;3.33;;;;;;;6.43;80.43;100028.97;1088067;54;20062;-83
2021/10/22 05:05:36;;;;;;;6.50;3.10;;;;;;;6.34;80.55;100031.38;1087971;54;20027;-85
2021/10/22 05:06:37;;;;;;;9.00;3.05;;;;;;;6.37;80.85;100030.31;1087957;54;20035;-84
2021/10/22 05:07:42;;;;;;;8.32;3.75;;;;;;;6.32;80.58;100033.34;1088016;54;20034;-84
2021/10/22 05:08:46;;;;;;;7.40;2.90;;;;;;;6.36;80.64;100034.78;1088050;54;20065;-84
2021/10/22 05:09:50;;;;;;;8.80;2.92;;;;;;;6.29;80.40;100044.19;1088015;54;20042;-84
2021/10/22 05:10:55;;;;;;;8.73;3.13;;;;;;;6.31;80.48;100036.09;1088022;54;20026;-84
2021/10/22 05:11:56;;;;;;;5.80;2.25;;;;;;;6.32;80.29;100038.66;1087967;54;20034;-83
2021/10/22 05:13:00;;;;;;;6.63;2.85;;;;;;;6.34;80.25;100041.16;1087962;54;20030;-84
2021/10/22 05:14:02;;;;;;;5.93;2.40;;;;;;;6.33;80.30;100039.47;1087847;54;20045;-83
2021/10/22 05:15:08;;;;;;;7.22;2.38;;;;;;;6.29;80.33;100030.03;1087968;54;20014;-83
2021/10/22 05:16:12;;;;;;;5.15;2.60;;;;;;;6.25;80.41;100032.09;1088034;54;20038;-85
2021/10/22 05:17:14;;;;;;;7.68;2.58;;;;;;;6.20;80.40;100028.94;1087978;54;20038;-84
2021/10/22 05:18:18;;;;;;;6.47;2.50;;;;;;;6.19;80.41;100030.75;1088041;54;20091;-86
2021/10/22 05:19:20;;;;;;;5.63;2.70;;;;;;;6.30;80.03;100029.94;1090099;39;20717;-83
2021/10/22 05:20:24;;;;;;;7.55;3.15;;;;;;;6.26;80.07;100032.94;1088066;54;20022;-84
2021/10/22 05:21:29;;;;;;;9.45;3.35;;;;;;;6.20;80.46;100031.59;1088037;54;20034;-82
2021/10/22 05:22:31;;;;;;;6.57;2.78;;;;;;;6.13;80.64;100027.75;1088059;54;20019;-82
2021/10/22 05:23:36;;;;;;;10.02;3.50;;;;;;;6.11;80.71;100025.19;1088118;54;20035;-82
2021/10/22 05:24:41;;;;;;;10.80;3.40;;;;;;;6.07;80.74;100031.69;1088052;54;20046;-83
2021/10/22 05:25:48;;;;;;;9.05;3.83;;;;;;;6.09;80.97;100033.25;1088109;54;20014;-84
2021/10/22 05:26:50;;;;;;;5.38;3.40;;;;;;;6.06;80.77;100030.84;1088027;54;20039;-84
2021/10/22 05:27:54;;;;;;;9.55;3.67;;;;;;;6.13;80.50;100030.38;1088132;54;20777;-84
2021/10/22 05:28:58;;;;;;;6.80;4.55;;;;;;;6.11;80.52;100029.66;1088027;54;20038;-83
2021/10/22 05:30:00;;;;;;;7.00;3.80;;;;;;;6.12;80.56;100031.34;1088071;54;20019;-83
2021/10/22 05:31:04;;;;;;;6.55;3.60;;;;;;;6.16;80.60;100030.13;1090970;39;20540;-83
2021/10/22 05:32:06;;;;;;;9.15;3.78;;;;;;;6.12;80.50;100039.31;1088731;39;20605;-83
2021/10/22 05:33:14;;;;;;;9.55;4.15;;;;;;;6.22;80.52;100029.69;1087992;54;20030;-83
2021/10/22 05:34:16;;;;;;;7.93;3.75;;;;;;;6.17;80.66;100023.88;1087898;54;20030;-83
2021/10/22 05:35:20;;;;;;;7.10;3.28;;;;;;;6.06;80.73;100035.31;1087802;54;20029;-83
2021/10/22 05:36:23;;;;;;;6.93;3.50;;;;;;;6.01;81.02;100029.47;1088096;47;20034;-83
2021/10/22 05:37:28;;;;;;;7.95;3.10;;;;;;;6.04;80.52;100032.78;1088013;54;20725;-83
2021/10/22 05:38:30;;;;;;;5.80;2.83;;;;;;;6.05;80.90;100030.97;1088109;54;20066;-84
2021/10/22 05:39:35;;;;;;;10.30;3.47;;;;;;;5.99;81.13;100029.59;1102031;31;20813;-84
2021/10/22 05:40:39;;;;;;;7.40;3.30;;;;;;;6.01;80.71;100032.13;1087998;54;20682;-83
2021/10/22 05:41:46;;;;;;;6.20;2.97;;;;;;;6.00;80.86;100035.78;1088024;54;20039;-83
2021/10/22 05:42:50;;;;;;;5.15;2.63;;;;;;;6.05;80.77;100034.44;1088074;54;20034;-84
2021/10/22 05:43:54;;;;;;;6.72;3.00;;;;;;;6.07;81.05;100037.84;1088090;54;20765;-85
2021/10/22 05:44:58;;;;;;;8.98;3.10;;;;;;;6.12;80.77;100031.34;1088028;54;20034;-84
2021/10/22 05:46:04;;;;;;;7.68;3.03;;;;;;;6.06;80.82;100041.44;1090683;47;20839;-84
2021/10/22 05:47:06;;;;;;;8.07;3.15;;;;;;;6.06;80.91;100032.66;1087951;54;20090;-84
2021/10/22 05:48:10;;;;;;;10.20;3.97;;;;;;;6.09;80.83;100043.06;1088454;47;20035;-83
2021/10/22 05:49:11;;;;;;;7.15;3.03;;;;;;;6.17;80.61;100045.09;1088062;54;20035;-84
2021/10/22 05:50:16;;;;;;;9.50;2.70;;;;;;;6.29;79.92;100049.50;1088123;54;20053;-85
2021/10/22 05:51:17;;;;;;;6.07;2.88;;;;;;;6.35;80.03;100049.00;1088099;54;20029;-83
2021/10/22 05:52:22;;;;;;;7.35;2.65;;;;;;;6.35;79.75;100048.19;1088018;54;20034;-83
2021/10/22 05:53:24;;;;;;;6.07;3.10;;;;;;;6.29;79.88;100045.97;1088021;54;20035;-83
2021/10/22 05:54:28;;;;;;;6.45;2.90;;;;;;;6.23;80.26;100042.84;1088020;54;20113;-83
2021/10/22 05:55:30;;;;;;;8.50;2.88;;;;;;;6.15;80.43;100052.31;1088054;54;20034;-84
2021/10/22 05:56:34;;;;;;;10.20;4.03;;;;;;;6.11;80.63;100050.88;1087956;54;20038;-83
2021/10/22 05:57:41;;;;;;;6.25;2.80;;;;;;;6.09;80.59;100051.00;1087974;54;20030;-82
2021/10/22 05:58:42;;;;;;;9.02;3.10;;;;;;;6.01;80.73;100048.94;1087979;54;20026;-84
2021/10/22 05:59:46;;;;;;;7.32;2.85;;;;;;;6.00;80.86;100049.06;1088021;54;20049;-84
2021/10/22 06:00:48;;;;;;;7.60;2.95;;;;;;;5.89;80.98;100047.16;1088132;54;20035;-83
2021/10/22 06:01:59;;;;;;;7.18;2.97;;;;;;;5.91;81.06;100047.88;1088148;54;20034;-83
2021/10/22 06:03:03;;;;;;;7.32;2.75;;;;;;;5.98;80.70;100048.28;1088008;54;20030;-84
2021/10/22 06:04:05;;;;;;;6.63;2.75;;;;;;;5.89;81.10;100042.72;1088001;54;20026;-84
2021/10/22 06:05:10;;;;;;;7.03;2.60;;;;;;;5.89;81.16;100044.50;1088156;54;20110;-83
2021/10/22 06:06:12;;;;;;;8.35;3.75;;;;;;;5.87;81.04;100051.72;1088097;54;20030;-83
2021/10/22 06:07:16;;;;;;;6.78;3.03;;;;;;;6.03;80.65;100043.50;1088218;54;20014;-84
2021/10/22 06:08:18;;;;;;;7.22;3.53;;;;;;;5.89;80.98;100047.16;1088083;54;20046;-83
2021/10/22 06:09:23;;;;;;;10.32;4.30;;;;;;;5.88;81.22;100048.09;1094095;39;20696;-82
2021/10/22 06:10:33;;;;;;;5.95;3.17;;;;;;;6.03;81.05;100046.16;1088443;54;20034;-83
2021/10/22 06:11:35;;;;;;;8.55;4.55;;;;;;;5.96;81.12;100045.72;1088336;54;20763;-83
2021/10/22 06:12:41;;;;;;;7.95;4.15;;;;;;;6.08;80.77;100052.81;1088296;54;20014;-84
2021/10/22 06:13:46;;;;;;;8.77;3.70;;;;;;;6.20;80.38;100044.88;1088435;54;20038;-83
2021/10/22 06:14:51;;;;;;;8.48;4.90;;;;;;;6.08;80.60;100051.97;1088396;54;20033;-83
2021/10/22 06:15:53;;;;;;;9.48;4.97;;;;;;;6.16;80.51;100052.22;1088421;54;20038;-83
2021/10/22 06:17:09;;;;;;;9.70;4.47;;;;;;;6.32;80.22;100059.03;1088332;54;20073;-84
2021/10/22 06:18:13;;;;;;;6.57;3.13;;;;;;;6.44;79.70;100067.84;1088469;54;20090;-83
2021/10/22 06:19:35;;;;;;;5.13;2.65;;;;;;;6.50;79.59;100070.06;1088431;54;20019;-84
2021/10/22 06:20:44;;;;;;;7.78;3.45;;;;;;;6.52;79.62;100065.44;1088456;54;20039;-84
2021/10/22 06:22:08;;;;;;;6.50;3.70;;;;;;;6.37;79.72;100056.88;1088456;54;20042;-84
2021/10/22 06:24:29;;;;;;;7.28;3.45;;;;;;;6.44;79.82;100070.50;1088312;54;20023;-83
2021/10/22 06:25:30;;;;;;;10.57;3.58;;;;;;;6.53;79.58;100072.47;1089120;46;20038;-84
2021/10/22 06:26:38;;;;;;;8.05;3.42;;;;;;;6.59;79.54;100077.31;1088391;54;20046;-84
2021/10/22 06:27:43;;;;;;;6.55;3.00;;;;;;;6.64;79.30;100071.66;1089396;46;20102;-84
2021/10/22 06:28:47;;;;;;;8.00;5.00;;;;;;;6.68;78.96;100076.59;1088223;54;20018;-84
2021/10/22 06:29:51;;;;;;;8.10;4.70;;;;;;;6.70;79.16;100074.69;1088212;54;20034;-85
2021/10/22 06:30:52;;;;;;;6.85;4.18;;;;;;;6.72;79.07;100077.22;1088299;54;20038;-83
2021/10/22 06:31:57;;;;;;;7.97;3.95;;;;;;;6.66;79.13;100083.84;1088202;54;20031;-84
2021/10/22 06:32:58;;;;;;;6.88;3.90;;;;;;;6.69;79.26;100082.75;1088286;54;20054;-84
2021/10/22 06:34:03;;;;;;;9.05;3.10;;;;;;;6.65;79.10;100087.47;1088232;54;20053;-85
2021/10/22 06:35:06;;;;;;;6.15;2.65;;;;;;;6.62;79.05;100094.81;1088152;54;20038;-84
2021/10/22 06:36:11;;;;;;;9.10;3.03;;;;;;;6.51;79.40;100090.34;1088779;46;20042;-84
2021/10/22 06:37:15;;;;;;;8.13;3.67;;;;;;;6.40;79.45;100094.66;1088139;54;20019;-84
2021/10/22 06:38:17;;;;;;;7.00;3.13;;;;;;;6.31;79.65;100094.50;1088245;54;20045;-84
2021/10/22 06:39:21;;;;;;;7.13;3.38;;;;;;;6.32;80.07;100091.75;1088259;54;20706;-84
2021/10/22 06:40:23;;;;;;;11.95;5.35;;;;;;;6.27;80.08;100099.19;1088215;54;20061;-84
2021/10/22 06:41:27;;;;;;;13.45;5.35;;;;;;;6.23;80.10;100095.94;1088267;54;20034;-83
2021/10/22 06:42:28;;;;;;;9.25;4.45;;;;;;;6.24;80.23;100104.72;1088298;54;20029;-84
2021/10/22 06:43:35;;;;;;;9.23;3.83;;;;;;;6.21;80.02;100105.81;1088218;54;20037;-82
2021/10/22 06:44:39;;;;;;;9.63;3.95;;;;;;;6.17;80.67;100100.84;1089120;46;20058;-84
2021/10/22 06:45:41;;;;;;;8.73;3.75;;;;;;;6.37;79.64;100110.81;1088209;54;20046;-85
2021/10/22 06:46:45;;;;;;;10.20;3.53;;;;;;;6.49;79.36;100121.47;1088176;54;20034;-84
2021/10/22 06:47:50;;;;;;;5.55;3.25;;;;;;;6.48;79.45;100122.44;1088648;46;20732;-84
2021/10/22 06:48:54;;;;;;;8.93;3.70;;;;;;;6.33;79.88;100119.13;1089037;39;20222;-84
2021/10/22 06:49:56;;;;;;;10.27;4.05;;;;;;;6.31;79.91;100116.59;1088189;54;20090;-84
2021/10/22 06:51:01;;;;;;;9.85;4.70;;;;;;;6.31;79.90;100119.25;1088251;54;20090;-83
2021/10/22 06:52:05;;;;;;;9.50;4.10;;;;;;;6.40;79.67;100131.84;1088199;54;20035;-85
2021/10/22 06:53:09;;;;;;;13.40;4.50;;;;;;;6.40;79.54;100121.22;1088220;54;20031;-83
2021/10/22 06:54:13;;;;;;;11.10;4.43;;;;;;;6.39;79.61;100127.50;1088179;54;20063;-84
2021/10/22 06:55:15;;;;;;;8.55;3.67;;;;;;;6.38;79.58;100128.44;1088149;54;20023;-85
2021/10/22 06:56:20;;;;;;;8.23;3.30;;;;;;;6.36;79.78;100125.06;1088147;54;20054;-84
2021/10/22 06:57:24;;;;;;;6.40;2.95;;;;;;;6.34;79.94;100124.31;1087988;54;20031;-84
2021/10/22 06:58:26;;;;;;;8.85;3.40;;;;;;;6.25;79.82;100135.63;1088154;54;20058;-84
2021/10/22 06:59:32;;;;;;;6.72;3.17;;;;;;;6.29;79.99;100128.28;1088190;54;20027;-85
2021/10/22 07:00:35;;;;;;;9.52;3.30;;;;;;;6.22;79.97;100141.19;1088215;54;20038;-83
2021/10/22 07:01:40;;;;;;;11.80;3.05;;;;;;;6.13;80.19;100144.53;1088172;54;20772;-83
2021/10/22 07:02:50;;;;;;;6.97;2.90;;;;;;;6.27;79.99;100151.47;1091283;39;20787;-83
2021/10/22 07:03:54;;;;;;;8.57;3.33;;;;;;;6.22;80.25;100149.97;1088194;54;20752;-85
2021/10/22 07:04:56;;;;;;;7.60;2.90;;;;;;;6.29;79.93;100158.34;1088131;54;20906;-84
2021/10/22 07:07:24;;;;;;;7.45;3.53;;;;;;;6.35;79.60;100159.69;1087940;54;20034;-83
2021/10/22 07:08:26;;;;;;;9.90;2.83;;;;;;;6.34;79.51;100158.00;1088018;54;20852;-82
2021/10/22 07:09:30;;;;;;;9.88;3.55;;;;;;;6.29;79.63;100168.97;1087980;54;20030;-83
2021/10/22 07:10:32;;;;;;;6.97;2.83;;;;;;;6.30;79.90;100162.69;1088164;54;20034;-84
2021/10/22 07:11:37;;;;;;;11.23;3.85;;;;;;;6.38;79.64;100164.75;1088104;54;20391;-83
2021/10/22 07:12:38;;;;;;;7.63;4.07;;;;;;;6.31;79.85;100172.38;1087873;54;20098;-83
2021/10/22 07:13:42;;;;;;;8.80;3.22;;;;;;;6.29;79.91;100171.63;1088051;54;20746;-84
2021/10/22 07:14:53;;;;;;;6.15;3.05;;;;;;;6.45;79.80;100171.34;1088042;54;20034;-84
2021/10/22 07:15:57;;;;;;;;;;;;;;;6.53;79.55;100171.59;1088321;54;20026;-84
2021/10/22 07:17:01;;;;;;;6.93;2.65;;;;;;;6.65;78.94;100177.78;1088016;39;20581;-83
2021/10/22 07:18:04;;;;;;;7.97;3.35;;;;;;;6.74;78.78;100178.91;1087957;54;20035;-84
2021/10/22 07:19:08;;;;;;;11.48;3.00;;;;;;;6.74;78.64;100170.06;1087836;54;20030;-84
2021/10/22 07:20:11;;;;;;;6.75;3.47;;;;;;;6.86;78.58;100172.63;1088068;54;20026;-84
2021/10/22 07:21:17;;;;;;;5.07;2.38;;;;;;;6.92;78.44;100178.47;1088054;54;20065;-84
2021/10/22 07:22:29;;;;;;;5.93;2.88;;;;;;;7.02;77.75;100182.09;1088070;54;20031;-84
2021/10/22 07:23:34;;;;;;;8.40;2.67;;;;;;;7.05;77.92;100181.84;1088022;54;20030;-84
2021/10/22 07:24:38;;;;;;;6.03;2.45;;;;;;;7.10;77.67;100181.50;1088135;54;20034;-83
2021/10/22 07:25:41;;;;;;;5.75;2.10;;;;;;;7.15;77.38;100185.50;1088071;54;20035;-85
2021/10/22 07:26:45;;;;;;;6.35;2.63;;;;;;;7.12;77.28;100176.91;1088012;54;20034;-85
2021/10/22 07:27:47;;;;;;;5.38;2.13;;;;;;;7.19;77.55;100175.47;1088120;54;20035;-84
2021/10/22 07:28:52;;;;;;;5.80;2.35;;;;;;;7.25;77.30;100187.44;1088004;54;20026;-84
2021/10/22 07:29:58;;;;;;;6.72;2.85;;;;;;;7.30;77.19;100194.09;1087898;54;20038;-84
2021/10/22 07:31:00;;;;;;;6.30;2.58;;;;;;;7.08;77.37;100192.25;1087983;54;20038;-83
2021/10/22 07:32:04;;;;;;;4.93;2.50;;;;;;;7.25;77.63;100190.94;1087979;54;20038;-83
2021/10/22 07:33:06;;;;;;;6.60;2.53;;;;;;;7.29;77.34;100199.53;1087844;54;20034;-83
2021/10/22 07:34:14;;;;;;;5.47;2.42;;;;;;;7.35;77.15;100193.72;1089009;39;20621;-84
2021/10/22 07:35:16;;;;;;;6.75;2.40;;;;;;;7.40;76.82;100198.69;1088466;39;20644;-83
2021/10/22 07:36:20;;;;;;;8.95;2.35;;;;;;;7.44;76.74;100200.97;1087979;54;20035;-84
2021/10/22 07:37:21;;;;;;;5.90;2.20;;;;;;;7.47;76.57;100200.75;1087847;54;20812;-84
2021/10/22 07:38:26;;;;;;;8.80;2.50;;;;;;;7.49;76.59;100204.13;1087940;54;20030;-85
2021/10/22 07:39:30;;;;;;;4.88;2.20;;;;;;;7.52;76.69;100212.81;1087935;54;20030;-85
2021/10/22 07:40:31;;;;;;;8.73;2.58;;;;;;;7.37;76.90;100206.91;1088453;39;20665;-84
2021/10/22 07:41:36;;;;;;;6.72;2.60;;;;;;;7.46;76.94;100207.03;1087908;54;20062;-85
2021/10/22 07:42:37;;;;;;;8.45;2.75;;;;;;;7.56;76.83;100199.16;1087891;54;20042;-85
2021/10/22 07:43:41;;;;;;;7.95;3.10;;;;;;;7.30;77.22;100212.69;1087932;54;20058;-84
2021/10/22 07:44:43;;;;;;;11.30;3.28;;;;;;;7.01;77.72;100215.81;1087841;54;20058;-84
2021/10/22 07:45:50;;;;;;;7.00;3.30;;;;;;;6.89;78.05;100216.75;1087882;54;20813;-85
2021/10/22 07:46:52;;;;;;;8.02;2.95;;;;;;;6.89;78.33;100224.72;1092088;31;20820;-85
2021/10/22 07:47:57;;;;;;;9.60;3.20;;;;;;;7.08;78.08;100225.97;1087871;54;20031;-83
2021/10/22 07:49:01;;;;;;;6.32;2.53;;;;;;;7.10;77.65;100229.34;1087917;54;20030;-86
2021/10/22 07:50:06;;;;;;;8.80;3.35;;;;;;;7.10;77.87;100232.00;1087809;54;20034;-84
2021/10/22 07:51:11;;;;;;;8.65;3.42;;;;;;;6.98;77.85;100236.47;1087940;54;20041;-84
2021/10/22 07:52:15;;;;;;;7.97;3.50;;;;;;;7.00;77.88;100238.03;1087873;54;20030;-83
2021/10/22 07:53:19;;;;;;;11.25;3.35;;;;;;;7.07;77.81;100240.22;1087912;54;20041;-85
2021/10/22 07:54:20;;;;;;;10.82;4.45;;;;;;;6.99;78.15;100241.66;1087944;39;20665;-84
2021/10/22 07:55:25;;;;;;;8.38;4.00;;;;;;;7.03;78.02;100237.81;1089329;46;20034;-85
2021/10/22 07:56:29;;;;;;;8.68;3.38;;;;;;;7.21;77.84;100236.53;1088677;39;20589;-84
2021/10/22 07:57:32;;;;;;;6.53;3.10;;;;;;;7.34;77.37;100232.78;1087802;54;20036;-85
2021/10/22 07:58:36;;;;;;;6.57;2.70;;;;;;;7.50;76.74;100234.25;1087868;54;20115;-83
2021/10/22 07:59:38;;;;;;;10.57;2.80;;;;;;;7.63;76.50;100240.31;1087888;54;20034;-85
2021/10/22 08:00:42;;;;;;;6.68;2.92;;;;;;;7.71;76.32;100239.66;1087933;54;20030;-84
2021/10/22 08:01:49;;;;;;;5.88;2.65;;;;;;;7.72;76.19;100240.53;1087836;54;20096;-84
2021/10/22 08:02:51;;;;;;;6.32;2.72;;;;;;;7.76;76.28;100241.97;1087844;54;20026;-84
2021/10/22 08:03:55;;;;;;;9.68;3.47;;;;;;;7.67;76.55;100237.38;1087936;54;20034;-84
2021/10/22 08:04:56;;;;;;;9.73;3.30;;;;;;;7.46;77.17;100248.75;1087844;54;20146;-86
2021/10/22 08:06:00;;;;;;;8.13;3.65;;;;;;;7.72;76.75;100246.69;1088781;31;20712;-84
2021/10/22 08:07:02;;;;;;;11.02;3.53;;;;;;;7.55;77.08;100249.84;1087820;54;20031;-85
2021/10/22 08:08:07;;;;;;;11.43;3.60;;;;;;;7.51;77.40;100243.09;1087886;54;20776;-84
2021/10/22 08:09:08;;;;;;;6.93;3.38;;;;;;;7.71;76.76;100254.81;1089371;46;20034;-85
2021/10/22 08:10:13;;;;;;;6.22;2.90;;;;;;;7.92;76.38;100255.78;1087844;54;20081;-86
2021/10/22 08:11:18;;;;;;;5.10;2.60;;;;;;;8.03;75.82;100248.75;1087837;54;20048;-84
2021/10/22 08:12:20;;;;;;;6.40;2.30;;;;;;;8.11;75.49;100254.28;1087826;54;20029;-84
2021/10/22 08:13:24;;;;;;;10.95;3.45;;;;;;;7.90;76.18;100255.03;1087886;54;20034;-84
2021/10/22 08:14:25;;;;;;;9.68;3.45;;;;;;;7.81;76.78;100261.09;1088113;46;20022;-83
2021/10/22 08:15:30;;;;;;;11.05;3.47;;;;;;;7.73;77.13;100274.16;1087837;54;20041;-86
2021/10/22 08:16:34;;;;;;;11.43;3.80;;;;;;;7.85;77.17;100269.69;1087782;54;20070;-86
2021/10/22 08:17:38;;;;;;;7.75;2.83;;;;;;;8.08;76.41;100262.53;1088491;39;20233;-85
2021/10/22 08:18:42;;;;;;;7.80;2.45;;;;;;;8.25;75.82;100259.34;1087769;54;20046;-84
2021/10/22 08:19:50;;;;;;;10.48;3.58;;;;;;;8.00;76.31;100262.28;1087917;54;20035;-87
2021/10/22 08:20:58;;;;;;;10.88;3.63;;;;;;;7.86;76.71;100272.22;1087905;54;20034;-85
2021/10/22 08:23:24;;;;;;;10.77;3.63;;;;;;;7.72;76.93;100278.63;1087545;54;20030;-84
2021/10/22 08:24:25;;;;;;;10.90;4.00;;;;;;;7.81;76.65;100277.06;1087915;54;20025;-86
2021/10/22 08:25:29;;;;;;;8.52;3.80;;;;;;;7.87;76.42;100279.22;1087817;54;20082;-85
2021/10/22 08:26:33;;;;;;;11.40;4.25;;;;;;;7.73;77.06;100280.31;1087873;54;20041;-85
2021/10/22 08:27:37;;;;;;;13.35;4.72;;;;;;;7.73;76.83;100268.84;1087892;54;20038;-84
2021/10/22 08:28:41;;;;;;;10.48;4.15;;;;;;;7.60;77.24;100274.28;1087867;54;20046;-84
2021/10/22 08:29:42;;;;;;;9.63;4.00;;;;;;;7.64;77.17;100268.59;1088020;39;20674;-84
2021/10/22 08:30:55;;;;;;;9.75;4.38;;;;;;;7.78;76.88;100277.31;1087524;54;20030;-84
2021/10/22 08:31:56;;;;;;;10.90;4.68;;;;;;;7.76;76.59;100269.44;1087988;54;20038;-86
2021/10/22 08:33:03;;;;;;;8.57;3.30;;;;;;;7.97;76.27;100272.22;1087957;54;20021;-86
2021/10/22 08:34:07;;;;;;;8.65;3.55;;;;;;;8.36;75.39;100263.78;1087887;54;20061;-84
2021/10/22 08:35:10;;;;;;;7.68;3.70;;;;;;;8.36;74.86;100252.28;1088280;39;20609;-84
2021/10/22 08:36:15;;;;;;;9.00;4.00;;;;;;;8.37;74.87;100262.81;1087993;54;20035;-86
2021/10/22 08:37:17;;;;;;;9.82;3.83;;;;;;;8.63;74.34;100261.69;1087828;54;20039;-88
2021/10/22 08:38:21;;;;;;;8.10;3.50;;;;;;;8.87;73.43;100259.66;1087919;54;20018;-86
2021/10/22 08:39:22;;;;;;;9.02;3.42;;;;;;;9.19;72.44;100253.41;1087782;54;20058;-85
2021/10/22 08:40:27;;;;;;;10.82;3.03;;;;;;;9.47;71.80;100261.69;1091561;39;20272;-85
2021/10/22 08:41:29;;;;;;;6.57;2.78;;;;;;;9.66;70.85;100257.44;1088821;39;20638;-85
2021/10/22 08:42:33;;;;;;;7.88;3.10;;;;;;;9.61;70.04;100255.16;1087921;54;20034;-87
2021/10/22 08:43:39;;;;;;;9.50;3.10;;;;;;;9.69;69.90;100262.53;1088337;46;20034;-86
2021/10/22 08:44:42;;;;;;;8.13;2.55;;;;;;;9.90;69.30;100250.94;1087781;54;20038;-84
2021/10/22 08:45:47;;;;;;;7.53;2.92;;;;;;;9.91;69.03;100247.28;1087778;54;20053;-85
2021/10/22 08:46:52;;;;;;;8.25;2.72;;;;;;;9.96;68.91;100245.91;1088018;39;20610;-86
2021/10/22 08:47:56;;;;;;;9.63;3.35;;;;;;;9.74;68.76;100252.28;1087925;54;20053;-87
2021/10/22 08:49:01;;;;;;;10.23;3.80;;;;;;;9.64;68.43;100246.91;1087874;54;20022;-85
2021/10/22 08:50:08;;;;;;;13.70;3.63;;;;;;;9.68;68.53;100248.31;1087798;54;20781;-84
2021/10/22 08:51:18;;;;;;;8.45;3.50;;;;;;;10.18;67.81;100243.97;1087822;54;20808;-84
2021/10/22 08:52:22;;;;;;;10.00;2.90;;;;;;;10.24;66.93;100247.91;1087792;54;20034;-85
2021/10/22 08:53:27;;;;;;;6.53;2.40;;;;;;;10.51;66.72;100243.75;1087783;54;20039;-84
2021/10/22 08:54:30;;;;;;;8.07;2.53;;;;;;;10.38;66.05;100239.56;1087702;54;20034;-84
2021/10/22 08:55:34;;;;;;;8.77;3.10;;;;;;;10.21;66.44;100238.38;1087936;54;20030;-85
2021/10/22 08:56:39;;;;;;;8.52;2.92;;;;;;;10.17;66.24;100246.78;1087929;54;20054;-85
2021/10/22 08:57:44;;;;;;;6.72;2.40;;;;;;;10.59;65.65;100241.22;1087869;54;20772;-87
2021/10/22 08:58:49;;;;;;;11.18;2.80;;;;;;;10.31;65.25;100243.72;1087854;54;20099;-86
2021/10/22 08:59:57;;;;;;;8.02;2.65;;;;;;;10.29;65.77;100248.38;1087780;54;20034;-86
2021/10/22 09:00:59;;;;;;;11.43;3.22;;;;;;;10.35;65.40;100247.81;1087852;54;20057;-87
2021/10/22 09:02:20;;;;;;;12.73;3.22;;;;;;;10.58;64.16;100234.22;1087798;54;20037;-86
2021/10/22 09:03:25;;;;;;;9.20;2.67;;;;;;;10.47;64.40;100234.34;1087802;54;20034;-85
2021/10/22 09:04:33;;;;;;;8.27;2.80;;;;;;;10.27;63.81;100245.00;1088027;54;20029;-86
2021/10/22 09:05:38;;;;;;;8.60;2.67;;;;;;;10.36;63.97;100244.16;1088016;54;20059;-84
2021/10/22 09:06:49;;;;;;;11.43;2.75;;;;;;;10.49;63.14;100248.41;1087955;54;20065;-85
2021/10/22 09:07:55;;;;;;;9.50;2.35;;;;;;;10.71;63.23;100244.63;1087805;54;20102;-84
2021/10/22 09:08:57;;;;;;;9.52;2.60;;;;;;;11.01;62.54;100237.41;1087761;54;20037;-86
2021/10/22 09:10:08;;;;;;;9.48;2.25;;;;;;;11.17;61.64;100231.47;1087406;54;20890;-88
2021/10/22 09:11:23;;;;;;;7.85;2.90;;;;;;;10.98;60.88;100241.22;1087941;54;20030;-86
2021/10/22 09:12:41;;;;;;;7.90;2.35;;;;;;;11.50;60.38;100223.94;1087856;54;20038;-85
2021/10/22 09:13:45;;;;;;;11.50;3.20;;;;;;;11.33;61.34;100228.22;1087970;54;20041;-87
2021/10/22 09:15:05;;;;;;;9.30;2.50;;;;;;;11.31;60.63;100231.03;1088035;54;20050;-87
2021/10/22 09:17:14;;;;;;;6.68;2.17;;;;;;;11.52;60.44;100232.66;1086389;54;20011;-86